Hovedside
METAR-TAF:

METAR-TAF

Lufthavner :

Växjö lufthavn

Växjö, Sverige

breddegrad: 56-51N, lengdegrad: 014-50E, høyde over havet: 199 m

Gjeldene værobservasjon

Denne rapporten ble laget for 12 minutter siden, klokken 03:20 UTC
Vind 3 kt fra Øst, skiftende mellom Nord-nordøst og Sør-sørøst
Temperatur 2°C
Luftfuktighet 100%
Trykk 983 hPa
Sikt: 6000 m
duskregn

METAR: ESMX 140320Z AUTO 09003KT 030V160 6000 DZ OVC003/// 02/02 Q0983 RESHUP

Tid: 04:32 (03:32 UTC)

Varsel

Denne rapporten ble laget for 13 timer og 2 minutter siden, klokken 14:30 UTC
Varsel gyldig fra 13. klokken 15 UTC til 13. klokken 19 UTC
Vind 5 kt fra Øst
Sikt 10 km eller mer
Brutte skyer i en høyde av 900 ft
lett regn
Midlertidig
fra 13. klokken 15 UTC til 13. klokken 19 UTC
Sikt: 3000 m
Brutte skyer i en høyde av 400 ft
lett regn, snø

TAF: ESMX 131430Z 1315/1319 09005KT 9999 -RA BKN009 TEMPO 1315/1319 3000 -RASN BKN004

Værobservasjoner og værvarsel for over 4000 flyplasser (METAR- og TAF-rapporter).

Tilgjengelige stasjoner er representert av de røde og gule prikkene på kartet.

Hold musepekeren over prikken for å se navnet på stasjonen.

Klikk så for å se værobservasjoner og -varsler.

For å forandre kartet kan du klikke på den grønne knappen med svart kryss for å zoome inn, på den grønne knappen med strek for å zoome ut, eller på de grønne pilene for å se tilstøtende kart.


METAR-TAF: